sensor_id;sensor_type;location;lat;lon;timestamp;pressure;altitude;pressure_sealevel;temperature;humidity
33404;BME280;19751;40.274;18.268;2023-06-22T00:01:02;101267.28;;;25.00;100.00
33404;BME280;19751;40.274;18.268;2023-06-22T00:03:27;101266.44;;;24.99;100.00
33404;BME280;19751;40.274;18.268;2023-06-22T00:05:53;101265.91;;;24.97;100.00
33404;BME280;19751;40.274;18.268;2023-06-22T00:08:19;101267.00;;;24.96;100.00
33404;BME280;19751;40.274;18.268;2023-06-22T00:10:45;101269.75;;;24.96;100.00
33404;BME280;19751;40.274;18.268;2023-06-22T00:13:11;101264.22;;;24.96;100.00
33404;BME280;19751;40.274;18.268;2023-06-22T00:15:39;101280.53;;;24.98;100.00
33404;BME280;19751;40.274;18.268;2023-06-22T00:18:10;101278.00;;;24.96;100.00
33404;BME280;19751;40.274;18.268;2023-06-22T00:20:36;101271.44;;;24.97;100.00
33404;BME280;19751;40.274;18.268;2023-06-22T00:23:06;101268.94;;;24.96;100.00
33404;BME280;19751;40.274;18.268;2023-06-22T00:25:36;101279.13;;;24.95;100.00
33404;BME280;19751;40.274;18.268;2023-06-22T00:28:02;101273.91;;;24.94;100.00
33404;BME280;19751;40.274;18.268;2023-06-22T00:30:28;101278.59;;;24.93;100.00
33404;BME280;19751;40.274;18.268;2023-06-22T00:32:53;101282.16;;;24.94;100.00
33404;BME280;19751;40.274;18.268;2023-06-22T00:35:19;101272.25;;;24.93;100.00
33404;BME280;19751;40.274;18.268;2023-06-22T00:37:44;101271.38;;;24.92;100.00
33404;BME280;19751;40.274;18.268;2023-06-22T00:40:10;101265.06;;;24.92;100.00
33404;BME280;19751;40.274;18.268;2023-06-22T00:42:38;101270.03;;;24.90;100.00
33404;BME280;19751;40.274;18.268;2023-06-22T00:45:05;101271.13;;;24.89;100.00
33404;BME280;19751;40.274;18.268;2023-06-22T00:47:31;101269.47;;;24.88;100.00
33404;BME280;19751;40.274;18.268;2023-06-22T00:49:56;101266.97;;;24.86;100.00
33404;BME280;19751;40.274;18.268;2023-06-22T00:52:23;101260.66;;;24.86;100.00
33404;BME280;19751;40.274;18.268;2023-06-22T00:54:52;101256.25;;;24.85;100.00
33404;BME280;19751;40.274;18.268;2023-06-22T00:57:19;101261.19;;;24.88;100.00
33404;BME280;19751;40.274;18.268;2023-06-22T00:59:47;101261.47;;;24.86;100.00
33404;BME280;19751;40.274;18.268;2023-06-22T01:02:13;101258.16;;;24.84;100.00
33404;BME280;19751;40.274;18.268;2023-06-22T01:04:39;101256.78;;;24.82;100.00
33404;BME280;19751;40.274;18.268;2023-06-22T01:07:39;101252.91;;;24.77;100.00
33404;BME280;19751;40.274;18.268;2023-06-22T01:16:18;101240.78;;;24.68;100.00
33404;BME280;19751;40.274;18.268;2023-06-22T01:18:47;101244.91;;;24.66;100.00
33404;BME280;19751;40.274;18.268;2023-06-22T01:21:18;101249.88;;;24.64;100.00
33404;BME280;19751;40.274;18.268;2023-06-22T01:26:57;101249.00;;;24.63;100.00
33404;BME280;19751;40.274;18.268;2023-06-22T01:29:27;101247.34;;;24.62;100.00
33404;BME280;19751;40.274;18.268;2023-06-22T01:31:54;101248.75;;;24.60;100.00
33404;BME280;19751;40.274;18.268;2023-06-22T01:34:21;101244.59;;;24.57;100.00
33404;BME280;19751;40.274;18.268;2023-06-22T01:36:49;101243.19;;;24.54;100.00
33404;BME280;19751;40.274;18.268;2023-06-22T01:39:16;101242.38;;;24.54;100.00
33404;BME280;19751;40.274;18.268;2023-06-22T01:41:43;101237.16;;;24.52;100.00
33404;BME280;19751;40.274;18.268;2023-06-22T01:44:09;101241.25;;;24.50;100.00
33404;BME280;19751;40.274;18.268;2023-06-22T01:46:36;101240.16;;;24.51;100.00
33404;BME280;19751;40.274;18.268;2023-06-22T01:49:02;101244.59;;;24.52;100.00
33404;BME280;19751;40.274;18.268;2023-06-22T01:51:29;101243.19;;;24.49;100.00
33404;BME280;19751;40.274;18.268;2023-06-22T01:53:55;101244.56;;;24.47;100.00
33404;BME280;19751;40.274;18.268;2023-06-22T01:56:21;101247.59;;;24.45;100.00
33404;BME280;19751;40.274;18.268;2023-06-22T02:01:28;101251.16;;;24.41;100.00
33404;BME280;19751;40.274;18.268;2023-06-22T02:04:04;101248.69;;;24.39;100.00
33404;BME280;19751;40.274;18.268;2023-06-22T02:06:34;101250.00;;;24.37;100.00
33404;BME280;19751;40.274;18.268;2023-06-22T02:09:07;101248.88;;;24.33;100.00
33404;BME280;19751;40.274;18.268;2023-06-22T02:11:35;101246.41;;;24.31;100.00
33404;BME280;19751;40.274;18.268;2023-06-22T02:14:02;101247.47;;;24.30;100.00
33404;BME280;19751;40.274;18.268;2023-06-22T02:16:28;101252.16;;;24.29;100.00
33404;BME280;19751;40.274;18.268;2023-06-22T02:18:55;101251.63;;;24.27;100.00
33404;BME280;19751;40.274;18.268;2023-06-22T02:21:29;101251.88;;;24.26;100.00
33404;BME280;19751;40.274;18.268;2023-06-22T02:23:55;101256.53;;;24.25;100.00
33404;BME280;19751;40.274;18.268;2023-06-22T02:26:20;101257.66;;;24.24;100.00
33404;BME280;19751;40.274;18.268;2023-06-22T02:28:46;101258.22;;;24.26;100.00
33404;BME280;19751;40.274;18.268;2023-06-22T02:31:11;101259.31;;;24.25;100.00
33404;BME280;19751;40.274;18.268;2023-06-22T02:33:37;101264.50;;;24.22;100.00
33404;BME280;19751;40.274;18.268;2023-06-22T02:36:02;101265.91;;;24.19;100.00
33404;BME280;19751;40.274;18.268;2023-06-22T02:38:37;101259.00;;;24.17;100.00
33404;BME280;19751;40.274;18.268;2023-06-22T02:41:02;101274.69;;;24.16;100.00
33404;BME280;19751;40.274;18.268;2023-06-22T02:43:28;101267.25;;;24.17;100.00
33404;BME280;19751;40.274;18.268;2023-06-22T02:45:53;101272.50;;;24.18;100.00
33404;BME280;19751;40.274;18.268;2023-06-22T02:48:19;101270.28;;;24.20;100.00
33404;BME280;19751;40.274;18.268;2023-06-22T02:50:45;101267.53;;;24.20;100.00
33404;BME280;19751;40.274;18.268;2023-06-22T02:53:10;101271.41;;;24.19;100.00
33404;BME280;19751;40.274;18.268;2023-06-22T02:55:36;101268.88;;;24.18;100.00
33404;BME280;19751;40.274;18.268;2023-06-22T02:58:01;101275.25;;;24.18;100.00
33404;BME280;19751;40.274;18.268;2023-06-22T03:00:30;101268.88;;;24.18;100.00
33404;BME280;19751;40.274;18.268;2023-06-22T03:02:56;101269.16;;;24.11;100.00
33404;BME280;19751;40.274;18.268;2023-06-22T03:05:22;101274.66;;;24.11;100.00
33404;BME280;19751;40.274;18.268;2023-06-22T03:07:48;101267.50;;;24.10;100.00
33404;BME280;19751;40.274;18.268;2023-06-22T03:10:15;101268.06;;;24.12;100.00
33404;BME280;19751;40.274;18.268;2023-06-22T03:12:41;101272.44;;;24.13;100.00
33404;BME280;19751;40.274;18.268;2023-06-22T03:15:08;101275.19;;;24.13;100.00
33404;BME280;19751;40.274;18.268;2023-06-22T03:17:35;101279.06;;;24.12;100.00
33404;BME280;19751;40.274;18.268;2023-06-22T03:20:02;101272.72;;;24.12;100.00
33404;BME280;19751;40.274;18.268;2023-06-22T03:22:37;101269.69;;;24.08;100.00
33404;BME280;19751;40.274;18.268;2023-06-22T03:25:04;101261.69;;;24.06;100.00
33404;BME280;19751;40.274;18.268;2023-06-22T03:27:29;101264.44;;;24.06;100.00
33404;BME280;19751;40.274;18.268;2023-06-22T03:29:57;101270.50;;;24.09;100.00
33404;BME280;19751;40.274;18.268;2023-06-22T03:32:22;101267.19;;;24.06;100.00
33404;BME280;19751;40.274;18.268;2023-06-22T03:34:48;101264.97;;;24.03;100.00
33404;BME280;19751;40.274;18.268;2023-06-22T03:37:14;101265.81;;;24.04;100.00
33404;BME280;19751;40.274;18.268;2023-06-22T03:39:41;101261.41;;;24.03;100.00
33404;BME280;19751;40.274;18.268;2023-06-22T03:42:07;101269.06;;;24.01;100.00
33404;BME280;19751;40.274;18.268;2023-06-22T03:44:32;101266.31;;;24.01;100.00
33404;BME280;19751;40.274;18.268;2023-06-22T03:46:58;101263.88;;;24.04;100.00
33404;BME280;19751;40.274;18.268;2023-06-22T03:49:23;101259.50;;;24.09;100.00
33404;BME280;19751;40.274;18.268;2023-06-22T03:51:49;101270.25;;;24.10;100.00
33404;BME280;19751;40.274;18.268;2023-06-22T03:54:14;101263.66;;;24.11;100.00
33404;BME280;19751;40.274;18.268;2023-06-22T03:56:40;101266.94;;;24.13;100.00
33404;BME280;19751;40.274;18.268;2023-06-22T03:59:05;101263.13;;;24.14;100.00
33404;BME280;19751;40.274;18.268;2023-06-22T04:01:31;101257.06;;;24.17;100.00
33404;BME280;19751;40.274;18.268;2023-06-22T04:03:56;101256.00;;;24.18;100.00
33404;BME280;19751;40.274;18.268;2023-06-22T04:06:21;101251.03;;;24.20;100.00
33404;BME280;19751;40.274;18.268;2023-06-22T04:08:47;101241.66;;;24.21;100.00
33404;BME280;19751;40.274;18.268;2023-06-22T04:11:18;101252.72;;;24.26;100.00
33404;BME280;19751;40.274;18.268;2023-06-22T04:13:44;101251.91;;;24.31;100.00
33404;BME280;19751;40.274;18.268;2023-06-22T04:16:09;101256.03;;;24.34;100.00
33404;BME280;19751;40.274;18.268;2023-06-22T04:18:35;101260.47;;;24.35;100.00
33404;BME280;19751;40.274;18.268;2023-06-22T04:21:02;101260.50;;;24.40;100.00
33404;BME280;19751;40.274;18.268;2023-06-22T04:23:28;101266.56;;;24.42;100.00
33404;BME280;19751;40.274;18.268;2023-06-22T04:25:53;101265.50;;;24.43;100.00
33404;BME280;19751;40.274;18.268;2023-06-22T04:28:19;101264.38;;;24.44;100.00
33404;BME280;19751;40.274;18.268;2023-06-22T04:30:44;101261.88;;;24.42;100.00
33404;BME280;19751;40.274;18.268;2023-06-22T04:33:16;101269.34;;;24.47;100.00
33404;BME280;19751;40.274;18.268;2023-06-22T04:35:44;101264.94;;;24.51;100.00
33404;BME280;19751;40.274;18.268;2023-06-22T04:38:12;101278.19;;;24.54;100.00
33404;BME280;19751;40.274;18.268;2023-06-22T04:40:39;101271.56;;;24.55;100.00
33404;BME280;19751;40.274;18.268;2023-06-22T04:43:05;101278.47;;;24.58;100.00
33404;BME280;19751;40.274;18.268;2023-06-22T04:45:32;101285.63;;;24.59;100.00
33404;BME280;19751;40.274;18.268;2023-06-22T04:47:58;101283.16;;;24.62;100.00
33404;BME280;19751;40.274;18.268;2023-06-22T04:50:23;101284.81;;;24.63;100.00
33404;BME280;19751;40.274;18.268;2023-06-22T04:52:50;101284.28;;;24.66;100.00
33404;BME280;19751;40.274;18.268;2023-06-22T04:55:17;101296.69;;;24.69;100.00
33404;BME280;19751;40.274;18.268;2023-06-22T04:57:48;101293.41;;;24.72;100.00
33404;BME280;19751;40.274;18.268;2023-06-22T05:00:20;101285.97;;;24.72;100.00
33404;BME280;19751;40.274;18.268;2023-06-22T05:02:47;101294.78;;;24.74;100.00
33404;BME280;19751;40.274;18.268;2023-06-22T05:05:13;101292.31;;;24.78;100.00
33404;BME280;19751;40.274;18.268;2023-06-22T05:07:46;101289.56;;;24.83;100.00
33404;BME280;19751;40.274;18.268;2023-06-22T05:10:14;101298.13;;;24.87;100.00
33404;BME280;19751;40.274;18.268;2023-06-22T05:12:40;101294.53;;;24.86;100.00
33404;BME280;19751;40.274;18.268;2023-06-22T05:15:07;101288.22;;;24.91;100.00
33404;BME280;19751;40.274;18.268;2023-06-22T05:17:34;101289.88;;;24.97;100.00
33404;BME280;19751;40.274;18.268;2023-06-22T05:19:59;101289.06;;;25.01;100.00
33404;BME280;19751;40.274;18.268;2023-06-22T05:22:25;101292.66;;;25.07;100.00
33404;BME280;19751;40.274;18.268;2023-06-22T05:24:51;101294.63;;;25.12;100.00
33404;BME280;19751;40.274;18.268;2023-06-22T05:27:17;101297.38;;;25.17;100.00
33404;BME280;19751;40.274;18.268;2023-06-22T05:29:43;101291.59;;;25.23;100.00
33404;BME280;19751;40.274;18.268;2023-06-22T05:32:09;101296.28;;;25.28;100.00
33404;BME280;19751;40.274;18.268;2023-06-22T05:34:37;101287.47;;;25.31;100.00
33404;BME280;19751;40.274;18.268;2023-06-22T05:37:05;101286.66;;;25.36;100.00
33404;BME280;19751;40.274;18.268;2023-06-22T05:39:30;101285.53;;;25.42;100.00
33404;BME280;19751;40.274;18.268;2023-06-22T05:41:56;101288.56;;;25.45;100.00
33404;BME280;19751;40.274;18.268;2023-06-22T05:44:21;101285.00;;;25.50;100.00
33404;BME280;19751;40.274;18.268;2023-06-22T05:46:47;101285.00;;;25.55;100.00
33404;BME280;19751;40.274;18.268;2023-06-22T05:49:14;101286.66;;;25.61;100.00
33404;BME280;19751;40.274;18.268;2023-06-22T05:51:40;101279.19;;;25.67;100.00
33404;BME280;19751;40.274;18.268;2023-06-22T05:54:06;101298.78;;;25.75;100.00
33404;BME280;19751;40.274;18.268;2023-06-22T05:56:35;101301.56;;;25.81;100.00
33404;BME280;19751;40.274;18.268;2023-06-22T05:59:01;101298.78;;;25.86;100.00
33404;BME280;19751;40.274;18.268;2023-06-22T06:01:27;101309.00;;;25.90;100.00
33404;BME280;19751;40.274;18.268;2023-06-22T06:03:54;101302.94;;;25.93;100.00
33404;BME280;19751;40.274;18.268;2023-06-22T06:06:22;101296.00;;;25.96;100.00
33404;BME280;19751;40.274;18.268;2023-06-22T06:08:53;101294.34;;;26.00;100.00
33404;BME280;19751;40.274;18.268;2023-06-22T06:11:19;101288.28;;;26.03;100.00
33404;BME280;19751;40.274;18.268;2023-06-22T06:13:44;101295.19;;;26.06;100.00
33404;BME280;19751;40.274;18.268;2023-06-22T06:16:10;101297.38;;;26.09;100.00
33404;BME280;19751;40.274;18.268;2023-06-22T06:18:36;101307.84;;;26.12;100.00
33404;BME280;19751;40.274;18.268;2023-06-22T06:21:02;101300.66;;;26.16;100.00
33404;BME280;19751;40.274;18.268;2023-06-22T06:23:28;101308.66;;;26.22;100.00
33404;BME280;19751;40.274;18.268;2023-06-22T06:25:53;101294.00;;;26.27;100.00
33404;BME280;19751;40.274;18.268;2023-06-22T06:28:19;101304.50;;;26.30;100.00
33404;BME280;19751;40.274;18.268;2023-06-22T06:30:44;101295.06;;;26.36;100.00
33404;BME280;19751;40.274;18.268;2023-06-22T06:33:12;101295.91;;;26.42;100.00
33404;BME280;19751;40.274;18.268;2023-06-22T06:35:38;101306.94;;;26.47;100.00
33404;BME280;19751;40.274;18.268;2023-06-22T06:38:03;101315.50;;;26.50;100.00
33404;BME280;19751;40.274;18.268;2023-06-22T06:40:29;101309.69;;;26.52;100.00
33404;BME280;19751;40.274;18.268;2023-06-22T06:42:54;101307.19;;;26.56;100.00
33404;BME280;19751;40.274;18.268;2023-06-22T06:45:21;101306.63;;;26.59;97.55
33404;BME280;19751;40.274;18.268;2023-06-22T06:47:48;101304.09;;;26.62;97.29
33404;BME280;19751;40.274;18.268;2023-06-22T06:50:14;101311.28;;;26.68;96.70
33404;BME280;19751;40.274;18.268;2023-06-22T06:52:40;101311.53;;;26.72;96.67
33404;BME280;19751;40.274;18.268;2023-06-22T06:55:06;101312.31;;;26.77;97.02
33404;BME280;19751;40.274;18.268;2023-06-22T06:57:33;101316.19;;;26.82;96.00
33404;BME280;19751;40.274;18.268;2023-06-22T06:59:59;101314.50;;;26.86;96.31
33404;BME280;19751;40.274;18.268;2023-06-22T07:02:26;101318.91;;;26.92;97.55
33404;BME280;19751;40.274;18.268;2023-06-22T07:04:53;101312.78;;;26.95;99.38
33404;BME280;19751;40.274;18.268;2023-06-22T07:07:20;101305.88;;;26.97;99.83
33404;BME280;19751;40.274;18.268;2023-06-22T07:09:46;101313.56;;;27.06;98.84
33404;BME280;19751;40.274;18.268;2023-06-22T07:12:12;101319.09;;;27.11;98.21
33404;BME280;19751;40.274;18.268;2023-06-22T07:14:37;101322.09;;;27.14;96.48
33404;BME280;19751;40.274;18.268;2023-06-22T07:17:03;101318.47;;;27.19;94.85
33404;BME280;19751;40.274;18.268;2023-06-22T07:19:28;101319.84;;;27.21;92.04
33404;BME280;19751;40.274;18.268;2023-06-22T07:21:54;101313.72;;;27.24;90.61
33404;BME280;19751;40.274;18.268;2023-06-22T07:24:21;101310.94;;;27.30;87.92
33404;BME280;19751;40.274;18.268;2023-06-22T07:26:47;101312.84;;;27.34;88.31
33404;BME280;19751;40.274;18.268;2023-06-22T07:29:16;101320.28;;;27.39;88.28
33404;BME280;19751;40.274;18.268;2023-06-22T07:31:41;101319.09;;;27.45;86.72
33404;BME280;19751;40.274;18.268;2023-06-22T07:34:07;101321.84;;;27.50;85.33
33404;BME280;19751;40.274;18.268;2023-06-22T07:36:32;101314.31;;;27.56;84.82
33404;BME280;19751;40.274;18.268;2023-06-22T07:38:58;101297.66;;;27.61;81.11
33404;BME280;19751;40.274;18.268;2023-06-22T07:41:23;101306.78;;;27.66;80.11
33404;BME280;19751;40.274;18.268;2023-06-22T07:43:49;101306.44;;;27.73;77.77
33404;BME280;19751;40.274;18.268;2023-06-22T07:46:15;101301.69;;;27.79;77.18
33404;BME280;19751;40.274;18.268;2023-06-22T07:48:41;101302.19;;;27.86;76.26
33404;BME280;19751;40.274;18.268;2023-06-22T07:51:08;101308.19;;;27.93;75.33
33404;BME280;19751;40.274;18.268;2023-06-22T07:53:34;101317.28;;;27.98;73.40
33404;BME280;19751;40.274;18.268;2023-06-22T07:56:01;101316.94;;;28.05;73.38
33404;BME280;19751;40.274;18.268;2023-06-22T07:58:32;101318.81;;;28.10;72.54
33404;BME280;19751;40.274;18.268;2023-06-22T08:00:57;101315.72;;;28.16;70.10
33404;BME280;19751;40.274;18.268;2023-06-22T08:03:23;101312.34;;;28.19;69.89
33404;BME280;19751;40.274;18.268;2023-06-22T08:05:48;101322.31;;;28.20;69.97
33404;BME280;19751;40.274;18.268;2023-06-22T08:08:15;101314.53;;;28.22;70.68
33404;BME280;19751;40.274;18.268;2023-06-22T08:10:40;101315.59;;;28.27;71.89
33404;BME280;19751;40.274;18.268;2023-06-22T08:13:07;101311.34;;;28.34;71.19
33404;BME280;19751;40.274;18.268;2023-06-22T08:15:33;101310.81;;;28.37;70.72
33404;BME280;19751;40.274;18.268;2023-06-22T08:17:58;101305.50;;;28.41;70.08
33404;BME280;19751;40.274;18.268;2023-06-22T08:20:26;101317.34;;;28.46;69.70
33404;BME280;19751;40.274;18.268;2023-06-22T08:22:53;101326.94;;;28.54;69.45
33404;BME280;19751;40.274;18.268;2023-06-22T08:25:19;101318.56;;;28.59;68.58
33404;BME280;19751;40.274;18.268;2023-06-22T08:27:46;101321.34;;;28.59;67.72
33404;BME280;19751;40.274;18.268;2023-06-22T08:30:15;101309.34;;;28.64;67.60
33404;BME280;19751;40.274;18.268;2023-06-22T08:32:42;101315.13;;;28.67;68.56
33404;BME280;19751;40.274;18.268;2023-06-22T08:35:08;101313.09;;;28.73;67.84
33404;BME280;19751;40.274;18.268;2023-06-22T08:37:33;101322.72;;;28.81;67.67
33404;BME280;19751;40.274;18.268;2023-06-22T08:40:01;101318.53;;;28.83;67.56
33404;BME280;19751;40.274;18.268;2023-06-22T08:42:29;101320.47;;;28.83;66.19
33404;BME280;19751;40.274;18.268;2023-06-22T08:44:55;101326.84;;;28.83;66.10
33404;BME280;19751;40.274;18.268;2023-06-22T08:47:20;101321.00;;;28.85;66.10
33404;BME280;19751;40.274;18.268;2023-06-22T08:49:46;101325.41;;;28.86;66.52
33404;BME280;19751;40.274;18.268;2023-06-22T08:52:13;101323.69;;;28.90;66.02
33404;BME280;19751;40.274;18.268;2023-06-22T08:54:38;101322.78;;;28.94;66.61
33404;BME280;19751;40.274;18.268;2023-06-22T08:57:04;101320.22;;;29.03;67.97
33404;BME280;19751;40.274;18.268;2023-06-22T08:59:29;101336.47;;;29.10;69.38
33404;BME280;19751;40.274;18.268;2023-06-22T09:01:55;101325.06;;;29.11;68.81
33404;BME280;19751;40.274;18.268;2023-06-22T09:04:21;101321.19;;;29.12;67.72
33404;BME280;19751;40.274;18.268;2023-06-22T09:06:48;101324.25;;;29.11;66.33
33404;BME280;19751;40.274;18.268;2023-06-22T09:09:16;101325.69;;;29.08;66.16
33404;BME280;19751;40.274;18.268;2023-06-22T09:11:41;101318.19;;;29.09;67.09
33404;BME280;19751;40.274;18.268;2023-06-22T09:14:08;101323.66;;;29.14;68.19
33404;BME280;19751;40.274;18.268;2023-06-22T09:16:34;101321.94;;;29.18;68.99
33404;BME280;19751;40.274;18.268;2023-06-22T09:18:59;101319.47;;;29.16;68.66
33404;BME280;19751;40.274;18.268;2023-06-22T09:21:25;101316.69;;;29.16;68.61
33404;BME280;19751;40.274;18.268;2023-06-22T09:23:51;101314.75;;;29.17;68.94
33404;BME280;19751;40.274;18.268;2023-06-22T09:26:17;101321.94;;;29.18;69.44
33404;BME280;19751;40.274;18.268;2023-06-22T09:28:43;101314.16;;;29.20;70.77
33404;BME280;19751;40.274;18.268;2023-06-22T09:31:09;101312.69;;;29.22;71.26
33404;BME280;19751;40.274;18.268;2023-06-22T09:33:36;101317.13;;;29.23;71.83
33404;BME280;19751;40.274;18.268;2023-06-22T09:36:06;101313.16;;;29.30;69.04
33404;BME280;19751;40.274;18.268;2023-06-22T09:38:38;101313.06;;;29.35;68.18
33404;BME280;19751;40.274;18.268;2023-06-22T09:41:04;101310.81;;;29.37;67.95
33404;BME280;19751;40.274;18.268;2023-06-22T09:43:32;101318.34;;;29.36;64.54
33404;BME280;19751;40.274;18.268;2023-06-22T09:45:58;101315.25;;;29.38;65.11
33404;BME280;19751;40.274;18.268;2023-06-22T09:48:23;101315.16;;;29.43;66.03
33404;BME280;19751;40.274;18.268;2023-06-22T09:50:49;101310.66;;;29.47;65.81
33404;BME280;19751;40.274;18.268;2023-06-22T09:53:14;101317.25;;;29.51;64.08
33404;BME280;19751;40.274;18.268;2023-06-22T09:55:40;101317.78;;;29.53;63.46
33404;BME280;19751;40.274;18.268;2023-06-22T09:58:05;101321.06;;;29.55;63.19
33404;BME280;19751;40.274;18.268;2023-06-22T10:00:31;101318.84;;;29.57;63.15
33404;BME280;19751;40.274;18.268;2023-06-22T10:02:57;101317.41;;;29.60;62.74
33404;BME280;19751;40.274;18.268;2023-06-22T10:05:22;101323.41;;;29.67;62.68
33404;BME280;19751;40.274;18.268;2023-06-22T10:07:48;101322.78;;;29.70;62.25
33404;BME280;19751;40.274;18.268;2023-06-22T10:10:14;101318.56;;;29.72;61.11
33404;BME280;19751;40.274;18.268;2023-06-22T10:12:46;101317.16;;;29.75;61.60
33404;BME280;19751;40.274;18.268;2023-06-22T10:15:12;101316.31;;;29.75;60.59
33404;BME280;19751;40.274;18.268;2023-06-22T10:17:37;101312.41;;;29.76;59.86
33404;BME280;19751;40.274;18.268;2023-06-22T10:20:04;101319.31;;;29.78;60.29
33404;BME280;19751;40.274;18.268;2023-06-22T10:22:36;101313.34;;;29.85;60.68
33404;BME280;19751;40.274;18.268;2023-06-22T10:25:02;101318.19;;;29.93;60.22
33404;BME280;19751;40.274;18.268;2023-06-22T10:27:27;101319.56;;;29.95;59.02
33404;BME280;19751;40.274;18.268;2023-06-22T10:29:53;101320.16;;;29.92;58.34
33404;BME280;19751;40.274;18.268;2023-06-22T10:32:19;101309.66;;;29.89;56.99
33404;BME280;19751;40.274;18.268;2023-06-22T10:34:44;101317.47;;;29.87;56.25
33404;BME280;19751;40.274;18.268;2023-06-22T10:37:10;101313.78;;;29.92;56.12
33404;BME280;19751;40.274;18.268;2023-06-22T10:39:35;101303.94;;;30.00;55.71
33404;BME280;19751;40.274;18.268;2023-06-22T10:42:01;101298.25;;;30.05;55.50
33404;BME280;19751;40.274;18.268;2023-06-22T10:44:26;101305.19;;;30.07;53.62
33404;BME280;19751;40.274;18.268;2023-06-22T10:46:52;101305.88;;;30.13;53.28
33404;BME280;19751;40.274;18.268;2023-06-22T10:49:17;101298.63;;;30.17;53.11
33404;BME280;19751;40.274;18.268;2023-06-22T10:51:43;101296.16;;;30.15;53.73
33404;BME280;19751;40.274;18.268;2023-06-22T10:54:08;101299.44;;;30.17;54.14
33404;BME280;19751;40.274;18.268;2023-06-22T10:56:34;101298.22;;;30.24;54.19
33404;BME280;19751;40.274;18.268;2023-06-22T10:58:59;101308.09;;;30.30;53.05
33404;BME280;19751;40.274;18.268;2023-06-22T11:01:25;101295.00;;;30.30;51.12
33404;BME280;19751;40.274;18.268;2023-06-22T11:03:50;101296.84;;;30.35;51.15
33404;BME280;19751;40.274;18.268;2023-06-22T11:06:16;101296.47;;;30.41;51.34
33404;BME280;19751;40.274;18.268;2023-06-22T11:08:44;101298.63;;;30.44;51.04
33404;BME280;19751;40.274;18.268;2023-06-22T11:11:10;101296.34;;;30.46;51.37
33404;BME280;19751;40.274;18.268;2023-06-22T11:13:36;101301.28;;;30.50;51.90
33404;BME280;19751;40.274;18.268;2023-06-22T11:16:01;101289.56;;;30.53;52.39
33404;BME280;19751;40.274;18.268;2023-06-22T11:18:27;101292.13;;;30.49;52.95
33404;BME280;19751;40.274;18.268;2023-06-22T11:20:52;101299.34;;;30.50;53.59
33404;BME280;19751;40.274;18.268;2023-06-22T11:23:18;101283.34;;;30.56;53.87
33404;BME280;19751;40.274;18.268;2023-06-22T11:25:44;101296.84;;;30.62;54.38
33404;BME280;19751;40.274;18.268;2023-06-22T11:28:11;101292.31;;;30.66;54.14
33404;BME280;19751;40.274;18.268;2023-06-22T11:30:37;101292.81;;;30.68;53.63
33404;BME280;19751;40.274;18.268;2023-06-22T11:33:02;101292.31;;;30.66;55.08
33404;BME280;19751;40.274;18.268;2023-06-22T11:35:28;101293.44;;;30.65;55.55
33404;BME280;19751;40.274;18.268;2023-06-22T11:37:53;101282.31;;;30.65;56.93
33404;BME280;19751;40.274;18.268;2023-06-22T11:40:22;101291.16;;;30.67;57.20
33404;BME280;19751;40.274;18.268;2023-06-22T11:42:48;101298.19;;;30.65;57.42
33404;BME280;19751;40.274;18.268;2023-06-22T11:45:13;101280.50;;;30.61;55.11
33404;BME280;19751;40.274;18.268;2023-06-22T11:47:39;101282.94;;;30.62;55.70
33404;BME280;19751;40.274;18.268;2023-06-22T11:50:05;101286.94;;;30.70;54.74
33404;BME280;19751;40.274;18.268;2023-06-22T11:52:31;101287.69;;;30.76;54.04
33404;BME280;19751;40.274;18.268;2023-06-22T11:54:57;101280.38;;;30.80;53.05
33404;BME280;19751;40.274;18.268;2023-06-22T11:57:24;101281.50;;;30.79;52.06
33404;BME280;19751;40.274;18.268;2023-06-22T11:59:50;101284.56;;;30.77;52.74
33404;BME280;19751;40.274;18.268;2023-06-22T12:02:15;101281.50;;;30.79;53.52
33404;BME280;19751;40.274;18.268;2023-06-22T12:04:41;101280.25;;;30.85;53.51
33404;BME280;19751;40.274;18.268;2023-06-22T12:07:06;101279.81;;;30.91;53.74
33404;BME280;19751;40.274;18.268;2023-06-22T12:09:32;101272.69;;;30.99;54.45
33404;BME280;19751;40.274;18.268;2023-06-22T12:11:58;101276.84;;;31.10;54.55
33404;BME280;19751;40.274;18.268;2023-06-22T12:14:23;101289.00;;;31.14;53.56
33404;BME280;19751;40.274;18.268;2023-06-22T12:16:49;101275.22;;;31.09;52.71
33404;BME280;19751;40.274;18.268;2023-06-22T12:19:14;101278.53;;;31.11;52.72
33404;BME280;19751;40.274;18.268;2023-06-22T12:21:40;101283.75;;;31.13;52.11
33404;BME280;19751;40.274;18.268;2023-06-22T12:24:09;101286.13;;;31.19;52.16
33404;BME280;19751;40.274;18.268;2023-06-22T12:26:34;101287.75;;;31.20;51.81
33404;BME280;19751;40.274;18.268;2023-06-22T12:29:00;101282.50;;;31.19;51.72
33404;BME280;19751;40.274;18.268;2023-06-22T12:31:25;101289.72;;;31.20;52.16
33404;BME280;19751;40.274;18.268;2023-06-22T12:33:51;101289.25;;;31.27;52.61
33404;BME280;19751;40.274;18.268;2023-06-22T12:36:16;101282.06;;;31.26;53.00
33404;BME280;19751;40.274;18.268;2023-06-22T12:38:42;101277.53;;;31.30;53.62
33404;BME280;19751;40.274;18.268;2023-06-22T12:41:08;101278.34;;;31.30;53.87
33404;BME280;19751;40.274;18.268;2023-06-22T12:43:34;101283.63;;;31.32;54.08